Terminal Aerodrome Forecast
Issued by NWS Central Illinois

Home | Current Version | Previous Version | Text Only | Print | Product List | Glossary On
Versions: 1 2 3 4 5 6 7 8 9 10 11 12 13 14 15 16
000
FTUS43 KILX 150500
TAFSPI
TAF
KSPI 150537Z 1506/1606 17005KT P6SM SCT050 SCT150
     FM151100 19006KT P6SM VCSH BKN050
     FM151700 20009KT P6SM VCTS BKN040CB
      TEMPO 1519/1523 4SM -SHRA BR BKN030
     FM152300 34012G18KT P6SM VCSH BKN030
      TEMPO 1523/1602 4SM -SHRA BR BKN025
     FM160300 36010KT P6SM BKN015=

USA.gov is the U.S. government's official web portal to all federal, state and local government web resources and services.